createdAt,value
2017-04-05T00:01:03.805Z,977.14
2017-04-05T00:02:14.058Z,977.15
2017-04-05T00:03:24.306Z,977.1
2017-04-05T00:04:34.555Z,977.02
2017-04-05T00:05:44.809Z,977.01
2017-04-05T00:06:55.076Z,976.97
2017-04-05T00:08:05.335Z,976.91
2017-04-05T00:09:15.588Z,976.83
2017-04-05T00:10:25.848Z,976.81
2017-04-05T00:11:36.104Z,976.84
2017-04-05T00:12:46.357Z,976.88
2017-04-05T00:13:56.615Z,976.85
2017-04-05T00:15:06.873Z,976.82
2017-04-05T00:16:17.134Z,976.78
2017-04-05T00:17:27.393Z,976.74
2017-04-05T00:18:37.656Z,976.75
2017-04-05T00:19:47.909Z,976.75
2017-04-05T00:20:58.161Z,976.66
2017-04-05T00:22:08.418Z,976.6
2017-04-05T00:23:18.678Z,976.57
2017-04-05T00:24:28.935Z,976.51
2017-04-05T00:25:39.191Z,976.51
2017-04-05T00:26:49.449Z,976.47
2017-04-05T00:27:59.708Z,976.43
2017-04-05T00:29:09.963Z,976.46
2017-04-05T00:30:20.220Z,976.5
2017-04-05T00:31:30.155Z,976.42
2017-04-05T00:32:40.415Z,976.38
2017-04-05T00:33:50.354Z,976.31
2017-04-05T00:35:00.611Z,976.25
2017-04-05T00:36:10.869Z,976.2
2017-04-05T00:37:21.160Z,976.19
2017-04-05T00:38:31.423Z,976.14
2017-04-05T00:39:41.685Z,976.19
2017-04-05T00:40:51.935Z,976.15
2017-04-05T00:42:02.194Z,976.1
2017-04-05T00:43:12.453Z,976.16
2017-04-05T00:44:22.704Z,976.19
2017-04-05T00:45:32.641Z,976.14
2017-04-05T00:46:42.580Z,976.2
2017-04-05T00:47:52.838Z,976.11
2017-04-05T00:49:03.093Z,976.12
2017-04-05T00:50:13.345Z,976.15
2017-04-05T00:51:23.288Z,976.23
2017-04-05T00:52:33.542Z,976.25
2017-04-05T00:53:43.476Z,976.27
2017-04-05T00:54:53.720Z,976.24
2017-04-05T00:56:03.657Z,976.19
2017-04-05T00:57:13.907Z,976.12
2017-04-05T00:58:24.164Z,976.03
2017-04-05T00:59:34.419Z,975.98
2017-04-05T01:00:44.679Z,975.94
2017-04-05T01:01:54.932Z,975.9
2017-04-05T01:03:05.187Z,975.88
2017-04-05T01:04:15.448Z,975.88
2017-04-05T01:05:25.710Z,975.83
2017-04-05T01:06:35.973Z,975.84
2017-04-05T01:07:46.231Z,975.74
2017-04-05T01:08:56.485Z,975.75
2017-04-05T01:10:06.741Z,975.7
2017-04-05T01:11:16.697Z,975.6
2017-04-05T01:12:26.955Z,975.58
2017-04-05T01:13:37.211Z,975.54
2017-04-05T01:14:47.483Z,975.57
2017-04-05T01:15:57.739Z,975.59
2017-04-05T01:17:07.679Z,975.57
2017-04-05T01:18:17.944Z,975.42
2017-04-05T01:19:28.197Z,975.48
2017-04-05T01:20:38.453Z,975.57
2017-04-05T01:21:48.703Z,975.59
2017-04-05T01:22:58.984Z,975.62
2017-04-05T01:24:09.235Z,975.69
2017-04-05T01:25:19.485Z,975.78
2017-04-05T01:26:29.740Z,975.76
2017-04-05T01:27:40.000Z,975.75
2017-04-05T01:28:50.255Z,975.72
2017-04-05T01:30:00.509Z,975.76
2017-04-05T01:31:10.772Z,975.74
2017-04-05T01:32:21.047Z,975.65
2017-04-05T01:33:31.306Z,975.59
2017-04-05T01:34:41.563Z,975.57
2017-04-05T01:35:51.824Z,975.46
2017-04-05T01:37:02.087Z,975.42
2017-04-05T01:38:12.338Z,975.36
2017-04-05T01:39:22.588Z,975.31
2017-04-05T01:40:32.870Z,975.22
2017-04-05T01:41:43.133Z,975.13
2017-04-05T01:42:53.396Z,975.11
2017-04-05T01:44:03.647Z,975.06
2017-04-05T01:45:13.594Z,975.1
2017-04-05T01:46:23.541Z,975.08
2017-04-05T01:47:33.796Z,975.11
2017-04-05T01:48:44.051Z,975.16
2017-04-05T01:49:54.307Z,975.17
2017-04-05T01:51:04.564Z,975.26
2017-04-05T01:52:14.510Z,975.24
2017-04-05T01:53:24.769Z,975.14
2017-04-05T01:54:35.024Z,975.09
2017-04-05T01:55:44.964Z,975.15
2017-04-05T01:56:55.216Z,975.12
2017-04-05T01:58:05.157Z,975.14
2017-04-05T01:59:15.414Z,975.08
2017-04-05T02:00:25.662Z,975.09
2017-04-05T02:01:35.918Z,975.1
2017-04-05T02:02:46.179Z,975.13
2017-04-05T02:03:56.434Z,975.16
2017-04-05T02:05:06.689Z,975.16
2017-04-05T02:06:16.941Z,975.1
2017-04-05T02:07:27.190Z,975.03
2017-04-05T02:08:37.445Z,975.09
2017-04-05T02:09:47.700Z,975.06
2017-04-05T02:10:57.639Z,975.01
2017-04-05T02:12:07.896Z,975.09
2017-04-05T02:13:18.154Z,975.03
2017-04-05T02:14:28.405Z,975.04
2017-04-05T02:15:38.345Z,974.99
2017-04-05T02:16:48.601Z,974.97
2017-04-05T02:17:58.853Z,974.99
2017-04-05T02:19:09.112Z,975.02
2017-04-05T02:20:19.365Z,975.03
2017-04-05T02:21:29.620Z,975.02
2017-04-05T02:22:39.558Z,974.96
2017-04-05T02:23:49.809Z,974.89
2017-04-05T02:25:00.067Z,974.92
2017-04-05T02:26:10.318Z,974.85
2017-04-05T02:27:20.575Z,974.85
2017-04-05T02:28:30.519Z,974.89
2017-04-05T02:29:40.783Z,974.83
2017-04-05T02:30:50.720Z,974.85
2017-04-05T02:32:00.665Z,974.87
2017-04-05T02:33:10.605Z,974.83
2017-04-05T02:34:20.864Z,974.87
2017-04-05T02:35:31.112Z,974.86
2017-04-05T02:36:41.367Z,974.86
2017-04-05T02:37:51.627Z,974.79
2017-04-05T02:39:01.881Z,974.75
2017-04-05T02:40:12.131Z,974.74
2017-04-05T02:41:22.392Z,974.83
2017-04-05T02:42:32.645Z,974.83
2017-04-05T02:43:42.900Z,974.89
2017-04-05T02:44:52.843Z,974.84
2017-04-05T02:46:02.842Z,974.84
2017-04-05T02:47:13.091Z,974.9
2017-04-05T02:48:23.350Z,974.89
2017-04-05T02:49:33.602Z,974.85
2017-04-05T02:50:43.550Z,974.79
2017-04-05T02:51:53.808Z,974.89
2017-04-05T02:53:04.059Z,974.92
2017-04-05T02:54:14.314Z,974.96
2017-04-05T02:55:24.567Z,974.94
2017-04-05T02:56:34.823Z,974.84
2017-04-05T02:57:44.763Z,974.82
2017-04-05T02:58:55.014Z,974.81
2017-04-05T03:00:05.268Z,974.78
2017-04-05T03:01:15.213Z,974.77
2017-04-05T03:02:25.471Z,974.78
2017-04-05T03:03:35.728Z,974.85
2017-04-05T03:04:45.984Z,974.8
2017-04-05T03:05:56.237Z,974.77
2017-04-05T03:07:06.176Z,974.76
2017-04-05T03:08:16.436Z,974.81
2017-04-05T03:09:26.690Z,974.75
2017-04-05T03:10:36.947Z,974.75
2017-04-05T03:11:47.199Z,974.71
2017-04-05T03:12:57.456Z,974.71
2017-04-05T03:14:07.708Z,974.7
2017-04-05T03:15:17.968Z,974.73
2017-04-05T03:16:28.218Z,974.75
2017-04-05T03:17:38.475Z,974.75
2017-04-05T03:18:48.724Z,974.74
2017-04-05T03:19:58.977Z,974.72
2017-04-05T03:21:09.238Z,974.72
2017-04-05T03:22:19.494Z,974.73
2017-04-05T03:23:29.754Z,974.73
2017-04-05T03:24:40.007Z,974.69
2017-04-05T03:25:50.262Z,974.67
2017-04-05T03:27:00.514Z,974.7
2017-04-05T03:28:10.775Z,974.71
2017-04-05T03:29:21.037Z,974.68
2017-04-05T03:30:31.297Z,974.61
2017-04-05T03:31:41.235Z,974.55
2017-04-05T03:32:51.485Z,974.53
2017-04-05T03:34:01.736Z,974.51
2017-04-05T03:35:11.995Z,974.5
2017-04-05T03:36:22.248Z,974.48
2017-04-05T03:37:32.497Z,974.52
2017-04-05T03:38:42.744Z,974.45
2017-04-05T03:39:53.001Z,974.47
2017-04-05T03:41:03.276Z,974.5
2017-04-05T03:42:13.533Z,974.54
2017-04-05T03:43:23.786Z,974.52
2017-04-05T03:44:34.039Z,974.52
2017-04-05T03:45:44.292Z,974.45
2017-04-05T03:46:54.232Z,974.42
2017-04-05T03:48:04.177Z,974.43
2017-04-05T03:49:14.116Z,974.4
2017-04-05T03:50:24.369Z,974.35
2017-04-05T03:51:34.624Z,974.35
2017-04-05T03:52:44.890Z,974.3
2017-04-05T03:53:55.139Z,974.28
2017-04-05T03:55:05.390Z,974.3
2017-04-05T03:56:15.334Z,974.29
2017-04-05T03:57:25.590Z,974.23
2017-04-05T03:58:35.843Z,974.19
2017-04-05T03:59:45.782Z,974.13
2017-04-05T04:00:55.721Z,974.05
2017-04-05T04:02:05.667Z,974.01
2017-04-05T04:03:15.604Z,973.94
2017-04-05T04:04:25.546Z,973.89
2017-04-05T04:05:35.798Z,973.9
2017-04-05T04:06:46.054Z,973.91
2017-04-05T04:07:55.990Z,973.92
2017-04-05T04:09:06.241Z,973.9
2017-04-05T04:10:16.493Z,973.9
2017-04-05T04:11:25.811Z,973.96
2017-04-05T04:12:36.070Z,973.93
2017-04-05T04:13:46.005Z,973.85
2017-04-05T04:14:56.264Z,973.91
2017-04-05T04:16:06.515Z,973.8
2017-04-05T04:17:16.452Z,973.75
2017-04-05T04:18:26.705Z,973.67
2017-04-05T04:19:36.643Z,973.65
2017-04-05T04:20:46.887Z,973.66
2017-04-05T04:21:57.140Z,973.62
2017-04-05T04:23:07.391Z,973.64
2017-04-05T04:24:17.648Z,973.64
2017-04-05T04:25:27.585Z,973.6
2017-04-05T04:26:37.842Z,973.55
2017-04-05T04:27:47.777Z,973.54
2017-04-05T04:28:58.042Z,973.51
2017-04-05T04:30:08.295Z,973.63
2017-04-05T04:31:18.552Z,973.54
2017-04-05T04:32:28.845Z,973.37
2017-04-05T04:33:39.102Z,973.33
2017-04-05T04:34:49.046Z,973.53
2017-04-05T04:35:58.981Z,973.56
2017-04-05T04:37:09.239Z,973.54
2017-04-05T04:38:19.492Z,973.63
2017-04-05T04:39:29.753Z,973.49
2017-04-05T04:40:39.692Z,973.49
2017-04-05T04:41:49.943Z,973.57
2017-04-05T04:43:00.195Z,973.71
2017-04-05T04:44:10.440Z,973.52
2017-04-05T04:45:20.691Z,973.56
2017-04-05T04:46:30.941Z,973.52
2017-04-05T04:47:41.200Z,973.47
2017-04-05T04:48:51.449Z,973.49
2017-04-05T04:50:01.696Z,973.48
2017-04-05T04:51:11.958Z,973.45
2017-04-05T04:52:21.891Z,973.42
2017-04-05T04:53:32.155Z,973.48
2017-04-05T04:54:42.092Z,973.43
2017-04-05T04:55:52.346Z,973.36
2017-04-05T04:57:02.599Z,973.41
2017-04-05T04:58:12.859Z,973.46
2017-04-05T04:59:22.810Z,973.56
2017-04-05T05:00:33.069Z,973.58
2017-04-05T05:01:43.013Z,973.56
2017-04-05T05:02:53.273Z,973.59
2017-04-05T05:04:03.529Z,973.57
2017-04-05T05:05:13.790Z,973.63
2017-04-05T05:06:23.749Z,973.59
2017-04-05T05:07:33.694Z,973.55
2017-04-05T05:08:43.637Z,973.61
2017-04-05T05:09:53.893Z,973.65
2017-04-05T05:11:04.145Z,973.59
2017-04-05T05:12:14.399Z,973.64
2017-04-05T05:13:24.352Z,973.64
2017-04-05T05:14:34.620Z,973.64
2017-04-05T05:15:44.874Z,973.7
2017-04-05T05:16:55.124Z,973.63
2017-04-05T05:18:05.071Z,973.68
2017-04-05T05:19:15.330Z,973.7
2017-04-05T05:20:25.269Z,973.76
2017-04-05T05:21:35.522Z,973.76
2017-04-05T05:22:45.795Z,973.7
2017-04-05T05:23:56.058Z,973.7
2017-04-05T05:25:06.322Z,973.7
2017-04-05T05:26:16.582Z,973.69
2017-04-05T05:27:26.836Z,973.73
2017-04-05T05:28:37.093Z,973.74
2017-04-05T05:29:47.343Z,973.76
2017-04-05T05:30:57.596Z,973.74
2017-04-05T05:32:07.856Z,973.74
2017-04-05T05:33:17.503Z,973.74
2017-04-05T05:34:27.767Z,973.72
2017-04-05T05:35:38.023Z,973.73
2017-04-05T05:36:48.276Z,973.73
2017-04-05T05:37:58.532Z,973.71
2017-04-05T05:39:08.791Z,973.68
2017-04-05T05:40:19.049Z,973.68
2017-04-05T05:41:28.992Z,973.71
2017-04-05T05:42:39.251Z,973.73
2017-04-05T05:43:49.508Z,973.78
2017-04-05T05:44:59.763Z,973.86
2017-04-05T05:46:10.021Z,973.84
2017-04-05T05:47:20.286Z,973.85
2017-04-05T05:48:30.558Z,973.82
2017-04-05T05:49:40.837Z,973.82
2017-04-05T05:50:51.092Z,973.84
2017-04-05T05:52:01.030Z,973.78
2017-04-05T05:53:11.289Z,973.79
2017-04-05T05:54:21.543Z,973.77
2017-04-05T05:55:31.796Z,973.75
2017-04-05T05:56:42.054Z,973.75
2017-04-05T05:57:52.309Z,973.77
2017-04-05T05:59:02.558Z,973.66
2017-04-05T06:00:12.526Z,973.67
2017-04-05T06:01:22.785Z,973.66
2017-04-05T06:02:33.044Z,973.6
2017-04-05T06:03:43.000Z,973.62
2017-04-05T06:04:53.259Z,973.61
2017-04-05T06:06:03.515Z,973.6
2017-04-05T06:07:13.146Z,973.54
2017-04-05T06:08:23.410Z,973.48
2017-04-05T06:09:33.671Z,973.51
2017-04-05T06:10:43.930Z,973.54
2017-04-05T06:11:54.191Z,973.5
2017-04-05T06:13:04.131Z,973.49
2017-04-05T06:14:13.445Z,973.51
2017-04-05T06:15:23.700Z,973.49
2017-04-05T06:16:33.965Z,973.58
2017-04-05T06:17:44.221Z,973.51
2017-04-05T06:18:54.479Z,973.58
2017-04-05T06:20:04.736Z,973.59
2017-04-05T06:21:14.693Z,973.5
2017-04-05T06:22:24.639Z,973.51
2017-04-05T06:23:34.585Z,973.52
2017-04-05T06:24:44.841Z,973.46
2017-04-05T06:25:55.097Z,973.46
2017-04-05T06:27:05.039Z,973.42
2017-04-05T06:28:15.295Z,973.38
2017-04-05T06:29:25.552Z,973.37
2017-04-05T06:30:35.812Z,973.33
2017-04-05T06:31:46.087Z,973.28
2017-04-05T06:32:56.341Z,973.21
2017-04-05T06:34:06.624Z,973.16
2017-04-05T06:35:16.884Z,973.15
2017-04-05T06:36:27.141Z,973.1
2017-04-05T06:37:37.399Z,973.06
2017-04-05T06:38:47.658Z,973.03
2017-04-05T06:39:57.608Z,973
2017-04-05T06:41:07.875Z,973
2017-04-05T06:42:18.140Z,972.97
2017-04-05T06:43:28.082Z,972.99
2017-04-05T06:44:37.714Z,972.93
2017-04-05T06:45:47.973Z,972.87
2017-04-05T06:46:57.917Z,972.84
2017-04-05T06:48:08.175Z,972.82
2017-04-05T06:49:17.799Z,972.77
2017-04-05T06:50:28.056Z,972.72
2017-04-05T06:51:38.319Z,972.71
2017-04-05T06:52:48.580Z,972.7
2017-04-05T06:53:58.834Z,972.69
2017-04-05T06:55:08.776Z,972.71
2017-04-05T06:56:19.036Z,972.74
2017-04-05T06:57:29.292Z,972.69
2017-04-05T06:58:39.547Z,972.72
2017-04-05T06:59:49.487Z,972.71
2017-04-05T07:00:59.426Z,972.7
2017-04-05T07:02:09.057Z,972.68
2017-04-05T07:03:19.318Z,972.73
2017-04-05T07:04:29.580Z,972.74
2017-04-05T07:05:39.833Z,972.69
2017-04-05T07:06:49.799Z,972.73
2017-04-05T07:08:00.056Z,972.76
2017-04-05T07:09:10.330Z,972.65
2017-04-05T07:10:20.595Z,972.69
2017-04-05T07:11:30.545Z,972.55
2017-04-05T07:12:40.811Z,972.66
2017-04-05T07:13:50.783Z,972.57
2017-04-05T07:15:01.035Z,972.55
2017-04-05T07:16:11.295Z,972.57
2017-04-05T07:17:21.570Z,972.52
2017-04-05T07:18:31.831Z,972.55
2017-04-05T07:19:42.090Z,972.47
2017-04-05T07:20:52.351Z,972.52
2017-04-05T07:22:02.613Z,972.47
2017-04-05T07:23:12.869Z,972.48
2017-04-05T07:24:23.133Z,972.43
2017-04-05T07:25:33.078Z,972.51
2017-04-05T07:26:43.019Z,972.48
2017-04-05T07:27:53.271Z,972.46
2017-04-05T07:29:03.528Z,972.45
2017-04-05T07:30:13.846Z,972.41
2017-04-05T07:31:24.098Z,972.39
2017-04-05T07:32:34.055Z,972.4
2017-04-05T07:33:44.315Z,972.42
2017-04-05T07:34:54.624Z,972.39
2017-04-05T07:36:04.884Z,972.36
2017-04-05T07:37:14.834Z,972.37
2017-04-05T07:38:24.783Z,972.38
2017-04-05T07:39:34.727Z,972.27
2017-04-05T07:40:44.988Z,972.27
2017-04-05T07:41:55.247Z,972.22
2017-04-05T07:43:05.510Z,972.12
2017-04-05T07:44:15.781Z,972.15
2017-04-05T07:45:26.042Z,971.98
2017-04-05T07:46:35.991Z,972.02
2017-04-05T07:47:46.252Z,972.03
2017-04-05T07:48:56.511Z,971.95
2017-04-05T07:50:06.773Z,971.95
2017-04-05T07:51:17.032Z,971.85
2017-04-05T07:52:27.283Z,971.94
2017-04-05T07:53:37.552Z,971.93
2017-04-05T07:54:47.498Z,971.88
2017-04-05T07:55:57.756Z,971.78
2017-04-05T07:57:08.015Z,971.78
2017-04-05T07:58:18.273Z,971.82
2017-04-05T07:59:28.218Z,971.87
2017-04-05T08:00:38.481Z,971.78
2017-04-05T08:01:48.740Z,971.8
2017-04-05T08:02:59.003Z,971.78
2017-04-05T08:04:09.268Z,971.82
2017-04-05T08:05:19.528Z,971.8
2017-04-05T08:06:29.794Z,971.78
2017-04-05T08:07:39.436Z,971.86
2017-04-05T08:08:49.697Z,971.8
2017-04-05T08:09:59.956Z,971.86
2017-04-05T08:11:10.219Z,971.79
2017-04-05T08:12:20.482Z,971.8
2017-04-05T08:13:30.423Z,971.81
2017-04-05T08:14:40.684Z,971.75
2017-04-05T08:15:50.950Z,971.81
2017-04-05T08:17:01.209Z,971.84
2017-04-05T08:18:11.152Z,971.73
2017-04-05T08:19:21.403Z,971.74
2017-04-05T08:20:31.353Z,971.77
2017-04-05T08:21:41.621Z,971.69
2017-04-05T08:22:51.890Z,971.63
2017-04-05T08:24:02.152Z,971.71
2017-04-05T08:25:12.100Z,971.65
2017-04-05T08:26:22.360Z,971.6
2017-04-05T08:27:32.625Z,971.59
2017-04-05T08:28:42.888Z,971.69
2017-04-05T08:29:53.150Z,971.63
2017-04-05T08:31:03.420Z,971.65
2017-04-05T08:32:13.685Z,971.63
2017-04-05T08:33:23.964Z,971.63
2017-04-05T08:34:34.227Z,971.61
2017-04-05T08:35:44.486Z,971.68
2017-04-05T08:36:54.752Z,971.64
2017-04-05T08:38:05.010Z,971.59
2017-04-05T08:39:15.272Z,971.66
2017-04-05T08:40:25.534Z,971.54
2017-04-05T08:41:35.793Z,971.49
2017-04-05T08:42:45.741Z,971.54
2017-04-05T08:43:56.251Z,971.53
2017-04-05T08:45:06.200Z,971.66
2017-04-05T08:46:16.462Z,971.58
2017-04-05T08:47:26.412Z,971.47
2017-04-05T08:48:36.675Z,971.49
2017-04-05T08:49:46.942Z,971.41
2017-04-05T08:50:57.199Z,971.39
2017-04-05T08:52:07.468Z,971.4
2017-04-05T08:53:17.732Z,971.47
2017-04-05T08:54:27.997Z,971.41
2017-04-05T08:55:37.641Z,971.46
2017-04-05T08:56:47.909Z,971.43
2017-04-05T08:57:58.204Z,971.5
2017-04-05T08:59:08.158Z,971.53
2017-04-05T09:00:18.422Z,971.55
2017-04-05T09:01:28.367Z,971.55
2017-04-05T09:02:38.629Z,971.49
2017-04-05T09:03:48.886Z,971.44
2017-04-05T09:04:58.834Z,971.4
2017-04-05T09:06:09.097Z,971.19
2017-04-05T09:07:19.378Z,971.14
2017-04-05T09:08:29.328Z,971.17
2017-04-05T09:09:39.584Z,971.1
2017-04-05T09:10:49.538Z,971.08
2017-04-05T09:11:59.804Z,971.1
2017-04-05T09:13:10.072Z,971.01
2017-04-05T09:14:20.022Z,971.01
2017-04-05T09:15:30.293Z,970.95
2017-04-05T09:16:40.560Z,971.18
2017-04-05T09:17:50.827Z,970.95
2017-04-05T09:19:01.089Z,970.96
2017-04-05T09:20:11.353Z,970.91
2017-04-05T09:21:21.300Z,970.93
2017-04-05T09:22:31.567Z,971.02
2017-04-05T09:23:41.520Z,970.99
2017-04-05T09:24:51.776Z,970.99
2017-04-05T09:26:01.754Z,971.03
2017-04-05T09:27:12.027Z,970.98
2017-04-05T09:28:22.284Z,971.14
2017-04-05T09:29:32.544Z,971.07
2017-04-05T09:30:42.805Z,971.09
2017-04-05T09:31:53.069Z,970.78
2017-04-05T09:33:03.325Z,970.71
2017-04-05T09:34:13.271Z,970.62
2017-04-05T09:35:23.529Z,970.55
2017-04-05T09:36:33.791Z,970.73
2017-04-05T09:37:44.048Z,970.64
2017-04-05T09:38:54.309Z,970.7
2017-04-05T09:40:04.565Z,970.78
2017-04-05T09:41:14.198Z,970.84
2017-04-05T09:42:24.463Z,970.82
2017-04-05T09:43:34.752Z,970.79
2017-04-05T09:44:45.012Z,970.8
2017-04-05T09:45:55.273Z,970.97
2017-04-05T09:47:05.224Z,971.11
2017-04-05T09:48:15.483Z,971.01
2017-04-05T09:49:25.428Z,970.88
2017-04-05T09:50:35.692Z,970.92
2017-04-05T09:51:45.951Z,970.95
2017-04-05T09:52:56.215Z,971.06
2017-04-05T09:54:06.190Z,971.48
2017-04-05T09:55:16.448Z,971.29
2017-04-05T09:56:26.396Z,971.14
2017-04-05T09:57:36.345Z,971.26
2017-04-05T09:58:46.294Z,971.23
2017-04-05T10:00:00.713Z,971.17
2017-04-05T10:01:10.659Z,971.17
2017-04-05T10:02:20.923Z,971.14
2017-04-05T10:03:31.220Z,971.16
2017-04-05T10:04:41.482Z,971.12
2017-04-05T10:05:51.436Z,971.14
2017-04-05T10:07:01.698Z,971.04
2017-04-05T10:08:11.966Z,971.17
2017-04-05T10:09:22.230Z,971.08
2017-04-05T10:10:32.494Z,970.94
2017-04-05T10:11:42.758Z,970.98
2017-04-05T10:12:53.019Z,971.02
2017-04-05T10:14:02.967Z,970.89
2017-04-05T10:15:13.232Z,971.02
2017-04-05T10:16:23.191Z,971.15
2017-04-05T10:17:33.453Z,971.19
2017-04-05T10:18:43.722Z,971.14
2017-04-05T10:19:53.983Z,971.03
2017-04-05T10:21:04.246Z,971.2
2017-04-05T10:22:14.511Z,970.99
2017-04-05T10:23:24.772Z,970.85
2017-04-05T10:24:35.030Z,970.74
2017-04-05T10:25:44.666Z,970.83
2017-04-05T10:26:54.928Z,970.82
2017-04-05T10:28:05.193Z,971.17
2017-04-05T10:29:15.493Z,970.98
2017-04-05T10:30:25.757Z,970.89
2017-04-05T10:31:36.020Z,970.96
2017-04-05T10:32:46.289Z,970.95
2017-04-05T10:33:56.227Z,970.88
2017-04-05T10:35:06.487Z,970.81
2017-04-05T10:36:16.747Z,970.69
2017-04-05T10:37:26.694Z,970.65
2017-04-05T10:38:36.960Z,970.56
2017-04-05T10:39:46.906Z,970.53
2017-04-05T10:40:56.856Z,970.5
2017-04-05T10:42:07.159Z,970.57
2017-04-05T10:43:17.417Z,970.62
2017-04-05T10:44:27.371Z,970.7
2017-04-05T10:45:37.352Z,970.74
2017-04-05T10:46:47.618Z,970.74
2017-04-05T10:47:57.885Z,970.85
2017-04-05T10:49:08.140Z,970.95
2017-04-05T10:50:18.398Z,970.93
2017-04-05T10:51:28.660Z,970.98
2017-04-05T10:52:38.930Z,971.01
2017-04-05T10:53:49.188Z,971
2017-04-05T10:54:59.449Z,970.91
2017-04-05T10:56:09.709Z,970.98
2017-04-05T10:57:19.995Z,971.02
2017-04-05T10:58:29.954Z,970.88
2017-04-05T10:59:39.918Z,970.85
2017-04-05T11:00:50.192Z,970.74
2017-04-05T11:02:00.453Z,970.77
2017-04-05T11:03:10.714Z,970.75
2017-04-05T11:04:20.980Z,970.76
2017-04-05T11:05:31.251Z,970.87
2017-04-05T11:06:41.519Z,970.82
2017-04-05T11:07:50.843Z,970.99
2017-04-05T11:09:01.106Z,970.94
2017-04-05T11:10:11.372Z,970.85
2017-04-05T11:11:21.637Z,970.91
2017-04-05T11:12:31.899Z,970.86
2017-04-05T11:13:41.536Z,970.86
2017-04-05T11:14:51.805Z,970.91
2017-04-05T11:16:02.068Z,970.91
2017-04-05T11:17:12.338Z,970.94
2017-04-05T11:18:22.603Z,970.93
2017-04-05T11:19:32.869Z,971.01
2017-04-05T11:20:43.134Z,971
2017-04-05T11:21:53.396Z,971.12
2017-04-05T11:23:03.657Z,971.05
2017-04-05T11:24:13.921Z,970.98
2017-04-05T11:25:24.194Z,971.04
2017-04-05T11:26:34.451Z,971.06
2017-04-05T11:27:44.710Z,970.91
2017-04-05T11:28:54.654Z,970.91
2017-04-05T11:30:04.920Z,970.96
2017-04-05T11:31:15.184Z,971.26
2017-04-05T11:32:25.140Z,971.3
2017-04-05T11:33:35.402Z,971.3
2017-04-05T11:34:45.659Z,971.47
2017-04-05T11:35:55.605Z,971.43
2017-04-05T11:37:05.872Z,971.46
2017-04-05T11:38:16.133Z,971.68
2017-04-05T11:39:26.080Z,971.6
2017-04-05T11:40:36.368Z,971.7
2017-04-05T11:41:46.324Z,971.72
2017-04-05T11:42:56.274Z,971.97
2017-04-05T11:44:06.534Z,972.14
2017-04-05T11:45:16.486Z,971.4
2017-04-05T11:46:26.441Z,971.64
2017-04-05T11:47:36.709Z,971.02
2017-04-05T11:48:47.004Z,971.18
2017-04-05T11:49:57.667Z,971.08
2017-04-05T11:51:07.616Z,971.13
2017-04-05T11:52:17.885Z,971.45
2017-04-05T11:53:27.862Z,971.57
2017-04-05T11:54:38.130Z,971.58
2017-04-05T11:55:48.401Z,971.8
2017-04-05T11:56:58.352Z,971.74
2017-04-05T11:58:07.993Z,971.99
2017-04-05T11:59:18.252Z,971.95
2017-04-05T12:00:28.521Z,971.94
2017-04-05T12:01:38.786Z,972.39
2017-04-05T12:02:49.049Z,972.23
2017-04-05T12:03:59.328Z,972.22
2017-04-05T12:05:09.275Z,972.11
2017-04-05T12:06:19.544Z,972.01
2017-04-05T12:07:29.491Z,972
2017-04-05T12:08:39.239Z,972.09
2017-04-05T12:09:49.504Z,972.47
2017-04-05T12:10:59.454Z,973.09
2017-04-05T12:12:09.402Z,973
2017-04-05T12:13:19.665Z,972.17
2017-04-05T12:14:29.933Z,972.39
2017-04-05T12:15:39.565Z,972.84
2017-04-05T12:16:49.825Z,972.68
2017-04-05T12:18:00.091Z,972.75
2017-04-05T12:19:10.358Z,972.8
2017-04-05T12:20:20.629Z,972.53
2017-04-05T12:21:30.893Z,971.95
2017-04-05T12:22:40.853Z,971.58
2017-04-05T12:23:50.806Z,971.94
2017-04-05T12:25:00.758Z,971.82
2017-04-05T12:26:10.724Z,971.9
2017-04-05T12:27:20.989Z,971.87
2017-04-05T12:28:30.620Z,971.86
2017-04-05T12:29:40.571Z,971.86
2017-04-05T12:30:50.207Z,971.83
2017-04-05T12:32:00.152Z,971.93
2017-04-05T12:33:10.103Z,972
2017-04-05T12:34:20.369Z,971.99
2017-04-05T12:35:30.632Z,972.07
2017-04-05T12:36:40.901Z,972.04
2017-04-05T12:37:50.855Z,972.08
2017-04-05T12:39:01.116Z,972
2017-04-05T12:40:11.378Z,972.11
2017-04-05T12:41:21.640Z,972.1
2017-04-05T12:42:31.272Z,972.04
2017-04-05T12:44:48.979Z,972.12
2017-04-05T12:45:59.246Z,972.16
2017-04-05T12:47:09.518Z,972.19
2017-04-05T12:48:19.780Z,972.15
2017-04-05T12:49:30.075Z,972.26
2017-04-05T12:50:40.021Z,972.26
2017-04-05T12:51:49.964Z,972.3
2017-04-05T12:53:00.223Z,972.39
2017-04-05T12:54:10.482Z,972.46
2017-04-05T12:55:20.743Z,972.4
2017-04-05T12:56:31.005Z,972.57
2017-04-05T12:57:40.956Z,972.66
2017-04-05T12:58:51.222Z,972.61
2017-04-05T13:00:01.172Z,972.46
2017-04-05T13:01:11.437Z,972.67
2017-04-05T13:02:21.693Z,972.7
2017-04-05T13:03:31.644Z,972.76
2017-04-05T13:04:41.908Z,972.73
2017-04-05T13:05:51.856Z,972.74
2017-04-05T13:07:02.118Z,972.83
2017-04-05T13:08:12.376Z,972.84
2017-04-05T13:09:22.627Z,972.75
2017-04-05T13:10:32.571Z,972.94
2017-04-05T13:11:42.521Z,973.06
2017-04-05T13:12:53.087Z,972.84
2017-04-05T13:14:03.037Z,973.02
2017-04-05T13:15:12.669Z,972.97
2017-04-05T13:16:22.933Z,973.04
2017-04-05T13:17:32.880Z,973
2017-04-05T13:18:43.145Z,973.14
2017-04-05T13:19:53.097Z,973.1
2017-04-05T13:21:03.361Z,973.2
2017-04-05T13:22:13.312Z,973.29
2017-04-05T13:23:23.577Z,973.22
2017-04-05T13:24:33.840Z,973.23
2017-04-05T13:25:44.106Z,973.21
2017-04-05T13:26:54.460Z,973.31
2017-04-05T13:28:04.724Z,973.4
2017-04-05T13:29:14.984Z,973.17
2017-04-05T13:30:25.450Z,973.31
2017-04-05T13:31:35.715Z,973.34
2017-04-05T13:32:45.974Z,973.47
2017-04-05T13:33:55.931Z,973.65
2017-04-05T13:35:06.216Z,973.76
2017-04-05T13:36:16.484Z,973.77
2017-04-05T13:37:26.742Z,973.73
2017-04-05T13:38:37.010Z,974.11
2017-04-05T13:39:46.986Z,974.84
2017-04-05T13:40:56.935Z,975.06
2017-04-05T13:42:07.190Z,975.04
2017-04-05T13:43:17.142Z,974.14
2017-04-05T13:44:27.413Z,973.42
2017-04-05T13:45:37.359Z,973.51
2017-04-05T13:46:47.306Z,973.71
2017-04-05T13:47:56.943Z,973.92
2017-04-05T13:49:07.207Z,973.79
2017-04-05T13:50:17.473Z,973.7
2017-04-05T13:51:27.421Z,973.99
2017-04-05T13:52:37.379Z,974.11
2017-04-05T13:53:47.637Z,974.27
2017-04-05T13:54:57.579Z,974.21
2017-04-05T13:56:07.528Z,974.21
2017-04-05T13:57:17.789Z,974.42
2017-04-05T13:58:28.069Z,974.43
2017-04-05T13:59:38.018Z,974.43
2017-04-05T14:00:47.649Z,974.59
2017-04-05T14:01:57.913Z,974.44
2017-04-05T14:03:07.857Z,974.33
2017-04-05T14:04:18.119Z,974.65
2017-04-05T14:05:28.098Z,974.71
2017-04-05T14:06:38.046Z,974.82
2017-04-05T14:07:47.672Z,974.82
2017-04-05T14:08:57.619Z,974.85
2017-04-05T14:10:07.564Z,974.94
2017-04-05T14:11:17.513Z,975.06
2017-04-05T14:12:27.776Z,975.24
2017-04-05T14:13:38.031Z,975.21
2017-04-05T14:14:47.681Z,975.29
2017-04-05T14:15:57.310Z,975.44
2017-04-05T14:17:07.569Z,975.41
2017-04-05T14:18:17.827Z,975.53
2017-04-05T14:19:28.089Z,975.33
2017-04-05T14:20:38.398Z,975.49
2017-04-05T14:21:48.343Z,975.49
2017-04-05T14:22:58.285Z,975.51
2017-04-05T14:24:08.547Z,975.54
2017-04-05T14:25:18.817Z,975.47
2017-04-05T14:26:29.073Z,975.56
2017-04-05T14:27:39.332Z,975.69
2017-04-05T14:28:48.994Z,975.75
2017-04-05T14:29:59.257Z,975.9
2017-04-05T14:31:09.517Z,975.78
2017-04-05T14:32:19.777Z,975.67
2017-04-05T14:33:30.044Z,975.62
2017-04-05T14:34:39.681Z,975.63
2017-04-05T14:35:49.625Z,975.73
2017-04-05T14:36:59.573Z,975.8
2017-04-05T14:38:09.827Z,975.85
2017-04-05T14:39:20.085Z,975.9
2017-04-05T14:40:30.355Z,975.93